createdAt,value
2019-01-29T00:02:48.754Z,0.49
2019-01-29T00:05:37.891Z,0.55
2019-01-29T00:08:27.311Z,0.55
2019-01-29T00:11:16.598Z,0.49
2019-01-29T00:14:05.798Z,0.52
2019-01-29T00:16:54.812Z,0.52
2019-01-29T00:19:42.717Z,0.52
2019-01-29T00:22:33.489Z,0.54
2019-01-29T00:25:22.293Z,0.51
2019-01-29T00:28:11.260Z,0.46
2019-01-29T00:31:00.430Z,0.55
2019-01-29T00:33:48.832Z,0.61
2019-01-29T00:36:37.494Z,0.64
2019-01-29T00:39:27.043Z,0.62
2019-01-29T00:42:15.870Z,0.68
2019-01-29T00:45:05.396Z,0.72
2019-01-29T00:47:54.426Z,0.71
2019-01-29T00:50:43.121Z,0.69
2019-01-29T00:53:32.280Z,0.59
2019-01-29T00:56:22.237Z,0.51
2019-01-29T00:59:11.360Z,0.59
2019-01-29T01:02:00.465Z,0.60
2019-01-29T01:04:48.458Z,0.60
2019-01-29T01:07:37.289Z,0.59
2019-01-29T01:10:26.376Z,0.56
2019-01-29T01:13:14.745Z,0.48
2019-01-29T01:16:03.699Z,0.50
2019-01-29T01:18:52.595Z,0.48
2019-01-29T01:21:41.592Z,0.46
2019-01-29T01:24:30.068Z,0.38
2019-01-29T01:27:18.155Z,0.30
2019-01-29T01:30:08.421Z,0.16
2019-01-29T01:32:57.144Z,0.15
2019-01-29T01:35:45.934Z,0.29
2019-01-29T01:38:35.143Z,0.35
2019-01-29T01:41:23.666Z,0.34
2019-01-29T01:44:12.018Z,0.28
2019-01-29T01:47:01.680Z,0.45
2019-01-29T01:49:50.530Z,0.32
2019-01-29T01:52:39.881Z,0.33
2019-01-29T01:55:29.338Z,0.31
2019-01-29T01:58:17.773Z,0.28
2019-01-29T02:01:06.022Z,0.17
2019-01-29T02:03:54.586Z,0.15
2019-01-29T02:06:43.444Z,0.10
2019-01-29T02:09:32.656Z,0.17
2019-01-29T02:12:21.318Z,0.21
2019-01-29T02:15:10.395Z,0.19
2019-01-29T02:17:58.571Z,0.19
2019-01-29T02:20:47.548Z,0.20
2019-01-29T02:23:35.411Z,0.23
2019-01-29T02:26:24.946Z,0.13
2019-01-29T02:29:13.609Z,0.08
2019-01-29T02:32:02.029Z,0.08
2019-01-29T02:34:50.412Z,0.15
2019-01-29T02:37:39.046Z,0.13
2019-01-29T02:40:29.262Z,0.10
2019-01-29T02:43:18.083Z,0.08
2019-01-29T02:46:06.819Z,0.08
2019-01-29T02:48:56.130Z,-0.09
2019-01-29T02:51:45.078Z,-0.09
2019-01-29T02:54:33.418Z,-0.13
2019-01-29T02:57:22.353Z,-0.09
2019-01-29T03:00:16.734Z,-0.08
2019-01-29T03:03:04.946Z,-0.02
2019-01-29T03:05:54.276Z,-0.01
2019-01-29T03:08:43.455Z,0.02
2019-01-29T03:11:32.343Z,0.12
2019-01-29T03:14:21.630Z,0.07
2019-01-29T03:17:10.552Z,0.05
2019-01-29T03:20:01.003Z,-0.02
2019-01-29T03:22:49.833Z,0.09
2019-01-29T03:25:38.420Z,0.06
2019-01-29T03:28:26.746Z,0.16
2019-01-29T03:31:14.877Z,0.15
2019-01-29T03:34:03.313Z,0.18
2019-01-29T03:36:51.773Z,0.25
2019-01-29T03:39:40.092Z,0.05
2019-01-29T03:42:28.501Z,0.05
2019-01-29T03:45:18.055Z,0.19
2019-01-29T03:48:07.159Z,0.19
2019-01-29T03:50:55.525Z,0.06
2019-01-29T03:53:44.142Z,0.09
2019-01-29T03:56:33.224Z,0.07
2019-01-29T03:59:22.040Z,0.10
2019-01-29T04:02:25.217Z,0.13
2019-01-29T04:05:10.092Z,0.13
2019-01-29T04:07:58.744Z,0.03
2019-01-29T04:10:47.702Z,-0.01
2019-01-29T04:13:36.804Z,0.14
2019-01-29T04:16:25.776Z,0.14
2019-01-29T04:19:13.839Z,0.12
2019-01-29T04:22:02.684Z,0.14
2019-01-29T04:24:51.603Z,0.12
2019-01-29T04:27:40.799Z,0.08
2019-01-29T04:30:33.415Z,0.24
2019-01-29T04:33:22.546Z,0.15
2019-01-29T04:36:10.403Z,0.15
2019-01-29T04:38:59.637Z,0.07
2019-01-29T04:41:47.891Z,0.22
2019-01-29T04:44:37.332Z,0.23
2019-01-29T04:47:26.737Z,0.33
2019-01-29T04:50:20.222Z,0.20
2019-01-29T04:53:09.131Z,0.20
2019-01-29T04:55:59.087Z,0.20
2019-01-29T04:58:47.406Z,0.24
2019-01-29T05:01:36.036Z,0.22
2019-01-29T05:04:24.813Z,0.30
2019-01-29T05:07:14.327Z,0.26
2019-01-29T05:10:52.678Z,0.30
2019-01-29T05:13:42.176Z,0.30
2019-01-29T05:16:30.903Z,0.36
2019-01-29T05:19:19.925Z,0.29
2019-01-29T05:22:12.463Z,0.33
2019-01-29T05:25:02.190Z,0.30
2019-01-29T05:27:51.771Z,0.37
2019-01-29T05:30:40.999Z,0.35
2019-01-29T05:33:34.126Z,0.39
2019-01-29T05:36:23.468Z,0.36
2019-01-29T05:39:15.490Z,0.37
2019-01-29T05:42:04.117Z,0.31
2019-01-29T05:44:52.555Z,0.20
2019-01-29T05:47:41.630Z,0.29
2019-01-29T05:50:30.910Z,0.28
2019-01-29T05:53:19.316Z,0.28
2019-01-29T05:56:07.863Z,0.16
2019-01-29T05:58:58.195Z,0.14
2019-01-29T06:01:46.309Z,0.18
2019-01-29T06:04:36.184Z,0.12
2019-01-29T06:07:25.149Z,0.22
2019-01-29T06:10:15.011Z,0.31
2019-01-29T06:13:04.593Z,0.24
2019-01-29T06:15:53.870Z,0.20
2019-01-29T06:18:42.418Z,0.13
2019-01-29T06:21:31.143Z,0.08
2019-01-29T06:24:25.648Z,0.19
2019-01-29T06:27:10.537Z,0.34
2019-01-29T06:29:58.922Z,0.36
2019-01-29T06:32:47.112Z,0.32
2019-01-29T06:35:35.819Z,0.26
2019-01-29T06:38:24.638Z,0.30
2019-01-29T06:41:14.147Z,0.36
2019-01-29T06:44:02.792Z,0.48
2019-01-29T06:46:52.176Z,0.43
2019-01-29T06:49:40.846Z,0.35
2019-01-29T06:52:29.409Z,0.34
2019-01-29T06:55:20.096Z,0.29
2019-01-29T06:58:08.314Z,0.34
2019-01-29T07:00:56.723Z,0.43
2019-01-29T07:03:44.808Z,0.41
2019-01-29T07:06:33.975Z,0.43
2019-01-29T07:09:22.269Z,0.45
2019-01-29T07:12:10.864Z,0.50
2019-01-29T07:14:59.028Z,0.51
2019-01-29T07:17:49.492Z,0.54
2019-01-29T07:20:39.287Z,0.40
2019-01-29T07:23:28.454Z,0.45
2019-01-29T07:26:19.853Z,0.50
2019-01-29T07:29:08.707Z,0.50
2019-01-29T07:31:57.615Z,0.55
2019-01-29T07:34:46.044Z,0.56
2019-01-29T07:37:35.458Z,0.52
2019-01-29T07:40:24.359Z,0.46
2019-01-29T07:43:12.238Z,0.54
2019-01-29T07:46:01.020Z,0.62
2019-01-29T07:48:49.416Z,0.63
2019-01-29T07:51:37.814Z,0.72
2019-01-29T07:54:33.238Z,0.77
2019-01-29T07:57:17.543Z,0.86
2019-01-29T08:00:07.003Z,0.85
2019-01-29T08:02:56.534Z,0.77
2019-01-29T08:05:45.727Z,0.89
2019-01-29T08:08:34.268Z,0.96
2019-01-29T08:11:23.268Z,0.94
2019-01-29T08:14:12.030Z,1.02
2019-01-29T08:17:00.592Z,1.01
2019-01-29T08:19:49.525Z,1.00
2019-01-29T08:22:37.721Z,1.19
2019-01-29T08:25:26.077Z,1.20
2019-01-29T08:28:14.904Z,1.04
2019-01-29T08:31:06.095Z,1.06
2019-01-29T08:33:58.894Z,1.14
2019-01-29T08:36:46.877Z,1.19
2019-01-29T08:39:35.724Z,1.27
2019-01-29T08:42:24.591Z,1.30
2019-01-29T08:45:14.008Z,1.25
2019-01-29T08:48:03.195Z,1.15
2019-01-29T08:50:51.884Z,1.19
2019-01-29T08:53:40.431Z,1.18
2019-01-29T08:56:28.680Z,1.23
2019-01-29T08:59:17.112Z,1.20
2019-01-29T09:02:08.138Z,1.27
2019-01-29T09:04:57.215Z,1.22
2019-01-29T09:07:47.918Z,1.28
2019-01-29T09:10:36.642Z,1.33
2019-01-29T09:13:24.903Z,1.16
2019-01-29T09:16:14.078Z,1.16
2019-01-29T09:19:02.836Z,1.30
2019-01-29T09:21:51.686Z,1.22
2019-01-29T09:24:41.737Z,1.15
2019-01-29T09:27:30.155Z,1.08
2019-01-29T09:30:18.715Z,1.06
2019-01-29T09:33:08.553Z,1.18
2019-01-29T09:35:56.626Z,1.19
2019-01-29T09:38:44.708Z,1.03
2019-01-29T09:41:33.973Z,0.62
2019-01-29T09:44:22.632Z,0.75
2019-01-29T09:47:12.325Z,0.91
2019-01-29T09:50:01.596Z,1.09
2019-01-29T09:52:50.496Z,1.16
2019-01-29T09:55:38.540Z,1.22
2019-01-29T09:58:27.416Z,1.46
2019-01-29T10:01:16.544Z,1.68
2019-01-29T10:04:05.978Z,1.84
2019-01-29T10:06:55.015Z,1.92
2019-01-29T10:09:43.552Z,1.95
2019-01-29T10:12:32.377Z,2.02
2019-01-29T10:15:23.766Z,1.97
2019-01-29T10:18:13.163Z,1.85
2019-01-29T10:21:01.772Z,1.89
2019-01-29T10:23:50.305Z,1.95
2019-01-29T10:26:39.755Z,1.95
2019-01-29T10:29:28.091Z,2.11
2019-01-29T10:32:17.351Z,2.05
2019-01-29T10:35:07.622Z,2.13
2019-01-29T10:37:56.096Z,2.24
2019-01-29T10:40:46.805Z,2.42
2019-01-29T10:43:35.515Z,2.31
2019-01-29T10:46:24.065Z,2.56
2019-01-29T10:49:12.425Z,2.80
2019-01-29T10:52:01.352Z,3.06
2019-01-29T10:54:50.227Z,3.14
2019-01-29T10:57:39.421Z,3.27
2019-01-29T11:00:34.137Z,3.48
2019-01-29T11:03:23.706Z,3.56
2019-01-29T11:06:12.089Z,3.57
2019-01-29T11:09:01.251Z,3.56
2019-01-29T11:11:50.308Z,3.56
2019-01-29T11:14:38.713Z,3.58
2019-01-29T11:17:26.630Z,3.91
2019-01-29T11:20:15.585Z,3.66
2019-01-29T11:23:07.162Z,3.41
2019-01-29T11:25:56.177Z,3.33
2019-01-29T11:28:45.376Z,3.17
2019-01-29T11:31:34.556Z,3.00
2019-01-29T11:34:23.135Z,3.19
2019-01-29T11:37:12.143Z,3.22
2019-01-29T11:40:01.222Z,2.86
2019-01-29T11:42:50.754Z,3.04
2019-01-29T11:45:45.891Z,3.06
2019-01-29T11:48:34.297Z,3.03
2019-01-29T11:51:23.310Z,3.03
2019-01-29T11:54:11.939Z,3.01
2019-01-29T11:57:00.877Z,3.17
2019-01-29T11:59:50.170Z,3.11
2019-01-29T12:02:38.574Z,3.47
2019-01-29T12:05:27.277Z,3.47
2019-01-29T12:08:16.603Z,3.40
2019-01-29T12:11:05.406Z,3.40
2019-01-29T12:13:54.753Z,3.65
2019-01-29T12:16:43.440Z,3.60
2019-01-29T12:19:32.233Z,3.61
2019-01-29T12:22:21.522Z,3.83
2019-01-29T12:25:10.511Z,4.47
2019-01-29T12:27:59.408Z,4.25
2019-01-29T12:30:47.992Z,3.88
2019-01-29T12:33:37.241Z,3.64
2019-01-29T12:36:27.317Z,3.43
2019-01-29T12:39:16.040Z,3.71
2019-01-29T12:42:04.628Z,3.64
2019-01-29T12:44:53.581Z,3.76
2019-01-29T12:47:42.946Z,3.78
2019-01-29T12:50:31.845Z,3.63
2019-01-29T12:53:23.068Z,3.98
2019-01-29T12:56:11.745Z,3.92
2019-01-29T12:59:00.458Z,3.79
2019-01-29T13:01:48.472Z,3.56
2019-01-29T13:04:58.633Z,3.56
2019-01-29T13:07:51.980Z,3.17
2019-01-29T13:10:40.494Z,3.40
2019-01-29T13:13:34.317Z,3.68
2019-01-29T13:16:26.402Z,3.88
2019-01-29T13:19:15.090Z,3.92
2019-01-29T13:22:04.482Z,4.03
2019-01-29T13:24:52.727Z,4.00
2019-01-29T13:28:00.903Z,4.02
2019-01-29T13:30:53.155Z,3.89
2019-01-29T13:34:03.796Z,3.74
2019-01-29T13:36:55.088Z,3.93
2019-01-29T13:39:43.969Z,4.21
2019-01-29T13:42:33.188Z,4.28
2019-01-29T13:45:21.938Z,4.40
2019-01-29T13:48:11.510Z,4.47
2019-01-29T13:51:01.888Z,3.99
2019-01-29T13:53:50.099Z,3.81
2019-01-29T13:56:39.816Z,3.72
2019-01-29T13:59:28.582Z,4.11
2019-01-29T14:02:36.524Z,4.62
2019-01-29T14:05:24.833Z,4.32
2019-01-29T14:08:14.158Z,3.47
2019-01-29T14:11:03.423Z,3.68
2019-01-29T14:13:52.052Z,3.97
2019-01-29T14:16:40.348Z,3.87
2019-01-29T14:19:28.980Z,4.34
2019-01-29T14:22:18.082Z,4.61
2019-01-29T14:25:06.986Z,4.42
2019-01-29T14:27:56.547Z,3.98
2019-01-29T14:30:45.552Z,3.98
2019-01-29T14:33:34.781Z,4.20
2019-01-29T14:36:23.896Z,4.09
2019-01-29T14:39:25.573Z,3.74
2019-01-29T14:42:15.883Z,3.90
2019-01-29T14:45:07.889Z,3.80
2019-01-29T14:47:57.841Z,3.57
2019-01-29T14:50:47.014Z,3.80
2019-01-29T14:53:35.329Z,3.90
2019-01-29T14:56:24.371Z,4.06
2019-01-29T14:59:12.557Z,3.96
2019-01-29T15:02:01.477Z,3.79
2019-01-29T15:04:49.857Z,3.58
2019-01-29T15:07:38.823Z,3.52
2019-01-29T15:10:27.442Z,3.46
2019-01-29T15:13:15.785Z,3.47
2019-01-29T15:16:30.393Z,3.14
2019-01-29T15:19:23.411Z,3.10
2019-01-29T15:22:12.357Z,2.98
2019-01-29T15:25:01.225Z,2.81
2019-01-29T15:27:50.378Z,2.71
2019-01-29T15:30:39.552Z,2.70
2019-01-29T15:33:28.215Z,2.32
2019-01-29T15:36:23.383Z,2.04
2019-01-29T15:39:11.629Z,1.93
2019-01-29T15:42:00.163Z,1.93
2019-01-29T15:44:48.622Z,1.69
2019-01-29T15:47:37.900Z,1.73
2019-01-29T15:50:26.301Z,1.61
2019-01-29T15:53:15.177Z,1.40
2019-01-29T15:56:04.268Z,1.70
2019-01-29T15:58:52.690Z,1.57
2019-01-29T16:02:00.339Z,1.58
2019-01-29T16:04:48.786Z,1.31
2019-01-29T16:07:38.407Z,1.03
2019-01-29T16:10:39.382Z,1.05
2019-01-29T16:13:23.609Z,1.12
2019-01-29T16:16:12.509Z,1.11
2019-01-29T16:19:01.760Z,1.10
2019-01-29T16:21:49.944Z,0.97
2019-01-29T16:24:38.853Z,0.67
2019-01-29T16:27:30.195Z,0.48
2019-01-29T16:30:26.036Z,0.60
2019-01-29T16:33:15.170Z,0.40
2019-01-29T16:36:04.235Z,0.54
2019-01-29T16:38:52.810Z,0.60
2019-01-29T16:41:41.567Z,0.44
2019-01-29T16:44:30.572Z,0.24
2019-01-29T16:47:19.057Z,0.14
2019-01-29T16:50:11.056Z,0.19
2019-01-29T16:53:00.755Z,0.24
2019-01-29T16:55:49.685Z,0.30
2019-01-29T16:58:38.099Z,0.37
2019-01-29T17:01:27.035Z,0.25
2019-01-29T17:04:15.447Z,0.22
2019-01-29T17:07:03.925Z,-0.03
2019-01-29T17:09:52.396Z,0.00
2019-01-29T17:12:40.383Z,-0.04
2019-01-29T17:15:29.870Z,0.02
2019-01-29T17:18:19.055Z,-0.24
2019-01-29T17:21:07.407Z,-0.38
2019-01-29T17:23:59.293Z,-0.43
2019-01-29T17:26:55.092Z,-0.56
2019-01-29T17:29:43.967Z,-0.64
2019-01-29T17:32:37.523Z,-0.65
2019-01-29T17:35:26.373Z,-0.81
2019-01-29T17:38:22.291Z,-0.82
2019-01-29T17:41:11.127Z,-0.87
2019-01-29T17:43:59.993Z,-0.87
2019-01-29T17:46:48.656Z,-0.89
2019-01-29T17:49:38.800Z,-1.00
2019-01-29T17:52:32.538Z,-1.01
2019-01-29T17:55:21.070Z,-1.16
2019-01-29T17:58:14.889Z,-1.16
2019-01-29T18:01:04.746Z,-1.14
2019-01-29T18:03:54.368Z,-1.37
2019-01-29T18:06:42.930Z,-1.24
2019-01-29T18:09:32.223Z,-1.24
2019-01-29T18:12:21.534Z,-1.36
2019-01-29T18:15:35.635Z,-1.71
2019-01-29T18:18:27.476Z,-1.71
2019-01-29T18:21:15.787Z,-1.57
2019-01-29T18:24:04.442Z,-1.49
2019-01-29T18:26:53.088Z,-1.54
2019-01-29T18:29:41.793Z,-1.43
2019-01-29T18:32:30.529Z,-1.49
2019-01-29T18:35:19.207Z,-1.49
2019-01-29T18:38:07.703Z,-1.54
2019-01-29T18:40:57.105Z,-1.64
2019-01-29T18:43:46.026Z,-1.66
2019-01-29T18:46:34.419Z,-1.44
2019-01-29T18:49:23.256Z,-1.53
2019-01-29T18:52:12.231Z,-1.53
2019-01-29T18:55:00.645Z,-1.74
2019-01-29T18:57:51.589Z,-1.60
2019-01-29T19:00:40.020Z,-1.60
2019-01-29T19:03:28.455Z,-1.54
2019-01-29T19:06:17.449Z,-1.69
2019-01-29T19:09:08.318Z,-1.91
2019-01-29T19:11:58.854Z,-1.91
2019-01-29T19:15:46.989Z,-1.95
2019-01-29T19:18:38.527Z,-1.89
2019-01-29T19:21:32.894Z,-1.86
2019-01-29T19:24:25.390Z,-1.86
2019-01-29T19:27:16.218Z,-1.85
2019-01-29T19:30:08.208Z,-1.84
2019-01-29T19:32:56.864Z,-1.84
2019-01-29T19:35:54.640Z,-1.79
2019-01-29T19:38:43.467Z,-1.79
2019-01-29T19:41:47.628Z,-1.91
2019-01-29T19:44:36.300Z,-1.83
2019-01-29T19:47:25.110Z,-1.83
2019-01-29T19:50:16.884Z,-1.88
2019-01-29T19:53:05.725Z,-1.86
2019-01-29T19:55:54.949Z,-1.92
2019-01-29T19:58:47.723Z,-1.92
2019-01-29T20:01:36.558Z,-1.97
2019-01-29T20:04:26.432Z,-1.87
2019-01-29T20:07:15.547Z,-1.87
2019-01-29T20:10:05.647Z,-2.06
2019-01-29T20:12:54.715Z,-2.13
2019-01-29T20:15:43.301Z,-2.13
2019-01-29T20:18:32.348Z,-2.25
2019-01-29T20:21:21.196Z,-2.26
2019-01-29T20:24:12.513Z,-2.25
2019-01-29T20:27:00.940Z,-2.25
2019-01-29T20:29:50.296Z,-2.22
2019-01-29T20:32:41.425Z,-2.22
2019-01-29T20:35:31.186Z,-2.25
2019-01-29T20:38:21.673Z,-2.23
2019-01-29T20:41:10.781Z,-2.14
2019-01-29T20:43:59.125Z,-2.15
2019-01-29T20:46:48.183Z,-2.11
2019-01-29T20:49:55.509Z,-2.10
2019-01-29T20:52:44.328Z,-2.14
2019-01-29T20:55:33.262Z,-2.13
2019-01-29T20:58:22.101Z,-2.13
2019-01-29T21:01:10.305Z,-2.27
2019-01-29T21:04:05.552Z,-2.30
2019-01-29T21:06:54.858Z,-2.28
2019-01-29T21:09:43.573Z,-2.28
2019-01-29T21:12:32.247Z,-2.25
2019-01-29T21:15:22.050Z,-2.25
2019-01-29T21:18:12.334Z,-2.42
2019-01-29T21:21:00.475Z,-2.50
2019-01-29T21:23:49.698Z,-2.53
2019-01-29T21:26:41.485Z,-2.48
2019-01-29T21:29:31.249Z,-2.51
2019-01-29T21:32:20.154Z,-2.51
2019-01-29T21:35:08.513Z,-2.41
2019-01-29T21:38:01.083Z,-2.52
2019-01-29T21:40:50.279Z,-2.45
2019-01-29T21:43:38.875Z,-2.46
2019-01-29T21:46:28.275Z,-2.60
2019-01-29T21:49:17.505Z,-2.68
2019-01-29T21:52:06.509Z,-2.59
2019-01-29T21:54:55.028Z,-2.47
2019-01-29T21:57:44.953Z,-2.63
2019-01-29T22:00:41.993Z,-2.69
2019-01-29T22:03:36.184Z,-2.65
2019-01-29T22:06:25.515Z,-2.77
2019-01-29T22:09:14.708Z,-2.60
2019-01-29T22:12:04.071Z,-2.60
2019-01-29T22:14:52.227Z,-2.60
2019-01-29T22:17:40.804Z,-2.57
2019-01-29T22:20:28.818Z,-2.61
2019-01-29T22:23:16.911Z,-2.70
2019-01-29T22:26:05.350Z,-2.70
2019-01-29T22:28:54.508Z,-2.73
2019-01-29T22:31:43.824Z,-2.79
2019-01-29T22:34:32.000Z,-2.65
2019-01-29T22:37:20.606Z,-2.94
2019-01-29T22:40:12.062Z,-2.84
2019-01-29T22:43:01.213Z,-2.84
2019-01-29T22:45:50.533Z,-3.05
2019-01-29T22:48:39.242Z,-3.05
2019-01-29T22:51:27.581Z,-3.12
2019-01-29T22:54:15.493Z,-3.06
2019-01-29T22:57:04.162Z,-3.05
2019-01-29T22:59:52.795Z,-3.21
2019-01-29T23:02:41.516Z,-3.12
2019-01-29T23:05:30.616Z,-3.05
2019-01-29T23:08:19.408Z,-3.03
2019-01-29T23:11:07.815Z,-3.03
2019-01-29T23:13:56.504Z,-2.99
2019-01-29T23:16:45.430Z,-3.07
2019-01-29T23:19:34.523Z,-3.18
2019-01-29T23:22:22.895Z,-3.13
2019-01-29T23:25:11.821Z,-3.11
2019-01-29T23:28:00.404Z,-3.14
2019-01-29T23:30:49.210Z,-3.14
2019-01-29T23:33:38.056Z,-3.32
2019-01-29T23:36:26.008Z,-3.32
2019-01-29T23:39:14.562Z,-3.28
2019-01-29T23:42:03.551Z,-3.35
2019-01-29T23:44:52.462Z,-3.39
2019-01-29T23:47:41.152Z,-3.40
2019-01-29T23:50:31.041Z,-3.50
2019-01-29T23:53:20.206Z,-3.52
2019-01-29T23:56:10.661Z,-3.52
2019-01-29T23:58:59.341Z,-3.64
